createdAt,value
2022-08-06T00:00:27.064Z,98876.81
2022-08-06T00:02:55.428Z,98873.63
2022-08-06T00:05:27.694Z,98880.19
2022-08-06T00:08:02.034Z,98877.84
2022-08-06T00:10:30.606Z,98877.88
2022-08-06T00:13:02.182Z,98868.06
2022-08-06T00:16:09.749Z,98873.09
2022-08-06T00:18:20.519Z,98872.09
2022-08-06T00:20:50.487Z,98865.22
2022-08-06T00:23:19.306Z,98866.94
2022-08-06T00:25:53.388Z,98875.63
2022-08-06T00:28:31.687Z,98883.31
2022-08-06T00:31:06.089Z,98882.81
2022-08-06T00:33:44.357Z,98883.31
2022-08-06T00:36:28.026Z,98886.50
2022-08-06T00:38:59.387Z,98888.53
2022-08-06T00:41:30.613Z,98879.31
2022-08-06T00:44:09.024Z,98881.50
2022-08-06T00:46:39.710Z,98889.00
2022-08-06T00:49:11.010Z,98886.25
2022-08-06T00:51:50.899Z,98885.56
2022-08-06T00:54:28.618Z,98892.47
2022-08-06T00:57:07.937Z,98895.47
2022-08-06T00:59:39.309Z,98897.19
2022-08-06T01:02:09.828Z,98900.03
2022-08-06T01:04:38.225Z,98899.50
2022-08-06T01:07:05.554Z,98900.16
2022-08-06T01:09:57.034Z,98891.31
2022-08-06T01:12:33.395Z,98892.47
2022-08-06T01:15:05.294Z,98901.75
2022-08-06T01:18:13.402Z,98897.34
2022-08-06T01:21:57.220Z,98898.03
2022-08-06T01:24:09.564Z,98899.53
2022-08-06T01:27:12.815Z,98903.41
2022-08-06T01:29:41.186Z,98902.72
2022-08-06T01:32:12.358Z,98897.53
2022-08-06T01:34:57.598Z,98906.88
2022-08-06T01:37:38.401Z,98913.44
2022-08-06T01:40:18.015Z,98912.72
2022-08-06T01:42:54.265Z,98905.69
2022-08-06T01:45:32.579Z,98915.72
2022-08-06T01:48:16.704Z,98902.47
2022-08-06T01:50:49.956Z,98908.81
2022-08-06T01:53:30.196Z,98909.00
2022-08-06T01:56:11.097Z,98912.66
2022-08-06T01:58:41.925Z,98923.75
2022-08-06T02:01:16.797Z,98919.22
2022-08-06T02:03:58.774Z,98921.22
2022-08-06T02:06:34.581Z,98911.63
2022-08-06T02:09:23.122Z,98914.22
2022-08-06T02:12:10.612Z,98915.75
2022-08-06T02:14:58.432Z,98920.38
2022-08-06T02:18:03.828Z,98920.38
2022-08-06T02:20:36.523Z,98922.50
2022-08-06T02:23:08.538Z,98925.50
2022-08-06T02:25:41.944Z,98930.47
2022-08-06T02:28:25.151Z,98924.81
2022-08-06T02:30:57.064Z,98924.13
2022-08-06T02:33:32.000Z,98925.88
2022-08-06T02:37:23.073Z,98921.25
2022-08-06T02:40:30.346Z,98924.00
2022-08-06T02:43:27.362Z,98921.47
2022-08-06T02:46:20.021Z,98919.97
2022-08-06T02:48:53.567Z,98922.81
2022-08-06T02:51:43.636Z,98926.47
2022-08-06T02:54:24.991Z,98931.03
2022-08-06T02:56:59.617Z,98937.06
2022-08-06T02:59:31.762Z,98931.81
2022-08-06T03:02:12.107Z,98929.56
2022-08-06T03:04:54.614Z,98928.00
2022-08-06T03:07:30.771Z,98936.50
2022-08-06T03:10:00.339Z,98927.84
2022-08-06T03:12:30.127Z,98932.00
2022-08-06T03:15:07.565Z,98934.59
2022-08-06T03:17:41.564Z,98938.03
2022-08-06T03:20:17.354Z,98940.75
2022-08-06T03:22:47.236Z,98947.34
2022-08-06T03:25:16.227Z,98948.63
2022-08-06T03:27:45.574Z,98953.28
2022-08-06T03:30:32.101Z,98957.88
2022-08-06T03:33:29.949Z,98953.81
2022-08-06T03:35:57.756Z,98951.84
2022-08-06T03:38:30.222Z,98956.13
2022-08-06T03:40:59.018Z,98965.47
2022-08-06T03:43:46.038Z,98968.16
2022-08-06T03:46:21.575Z,98966.03
2022-08-06T03:48:52.184Z,98960.28
2022-08-06T03:51:29.661Z,98967.97
2022-08-06T03:54:10.245Z,98969.38
2022-08-06T03:56:46.590Z,98974.72
2022-08-06T03:59:19.059Z,98976.34
2022-08-06T04:01:50.359Z,98970.81
2022-08-06T04:04:26.756Z,98976.03
2022-08-06T04:07:00.522Z,98974.28
2022-08-06T04:09:33.472Z,98983.16
2022-08-06T04:12:42.938Z,98981.22
2022-08-06T04:15:08.373Z,98983.88
2022-08-06T04:17:39.518Z,98984.72
2022-08-06T04:20:09.707Z,98981.03
2022-08-06T04:22:59.143Z,98985.63
2022-08-06T04:25:27.657Z,98990.44
2022-08-06T04:27:56.014Z,98991.09
2022-08-06T04:30:27.684Z,98994.13
2022-08-06T04:33:00.597Z,98998.38
2022-08-06T04:36:06.381Z,99007.88
2022-08-06T04:38:28.291Z,99004.44
2022-08-06T04:41:03.125Z,99001.66
2022-08-06T04:43:38.473Z,99005.34
2022-08-06T04:46:20.185Z,99012.41
2022-08-06T04:48:51.086Z,99013.41
2022-08-06T04:52:34.534Z,99015.81
2022-08-06T04:54:13.175Z,99021.09
2022-08-06T04:56:48.339Z,99021.13
2022-08-06T04:59:18.201Z,99029.84
2022-08-06T05:01:56.874Z,99031.38
2022-08-06T05:04:32.616Z,99037.19
2022-08-06T05:07:10.856Z,99040.03
2022-08-06T05:09:43.675Z,99041.56
2022-08-06T05:12:22.053Z,99039.19
2022-08-06T05:14:59.464Z,99048.31
2022-08-06T05:17:34.698Z,99049.75
2022-08-06T05:20:12.667Z,99050.44
2022-08-06T05:23:19.850Z,99055.09
2022-08-06T05:25:54.488Z,99058.47
2022-08-06T05:28:27.662Z,99058.88
2022-08-06T05:30:56.710Z,99058.03
2022-08-06T05:33:29.823Z,99064.88
2022-08-06T05:36:05.190Z,99063.19
2022-08-06T05:38:38.172Z,99065.19
2022-08-06T05:41:19.738Z,99060.47
2022-08-06T05:43:59.258Z,99065.25
2022-08-06T05:46:42.462Z,99059.94
2022-08-06T05:49:55.395Z,99063.75
2022-08-06T05:52:06.205Z,99059.88
2022-08-06T05:54:42.817Z,99065.50
2022-08-06T05:57:16.963Z,99066.38
2022-08-06T05:59:57.963Z,99071.81
2022-08-06T06:02:30.865Z,99069.03
2022-08-06T06:06:02.258Z,99079.72
2022-08-06T06:08:07.775Z,99075.13
2022-08-06T06:10:37.318Z,99075.41
2022-08-06T06:13:25.295Z,99074.88
2022-08-06T06:16:28.728Z,99074.66
2022-08-06T06:19:38.934Z,99082.00
2022-08-06T06:22:30.194Z,99084.94
2022-08-06T06:25:30.562Z,99089.94
2022-08-06T06:28:00.308Z,99087.84
2022-08-06T06:30:52.458Z,99098.97
2022-08-06T06:33:51.082Z,99100.34
2022-08-06T06:36:32.139Z,99096.47
2022-08-06T06:39:27.980Z,99100.84
2022-08-06T06:42:32.560Z,99100.97
2022-08-06T06:46:07.288Z,99101.13
2022-08-06T06:48:38.871Z,99101.41
2022-08-06T06:51:27.164Z,99103.25
2022-08-06T06:54:09.400Z,99101.31
2022-08-06T06:56:54.174Z,99102.16
2022-08-06T07:00:01.688Z,99099.66
2022-08-06T07:02:27.898Z,99110.28
2022-08-06T07:04:59.234Z,99104.84
2022-08-06T07:07:28.734Z,99114.25
2022-08-06T07:10:02.042Z,99119.44
2022-08-06T07:12:34.539Z,99120.28
2022-08-06T07:15:16.897Z,99115.69
2022-08-06T07:17:48.837Z,99116.63
2022-08-06T07:20:25.866Z,99121.81
2022-08-06T07:24:04.333Z,99131.16
2022-08-06T07:25:54.866Z,99118.88
2022-08-06T07:28:28.275Z,99119.84
2022-08-06T07:31:04.581Z,99121.69
2022-08-06T07:33:59.731Z,99118.81
2022-08-06T07:36:36.740Z,99124.22
2022-08-06T07:39:14.563Z,99117.44
2022-08-06T07:42:07.627Z,99124.38
2022-08-06T07:44:33.635Z,99123.03
2022-08-06T07:47:23.736Z,99126.06
2022-08-06T07:50:00.184Z,99132.97
2022-08-06T07:52:29.138Z,99135.25
2022-08-06T07:55:00.550Z,99123.81
2022-08-06T07:57:30.789Z,99129.88
2022-08-06T08:00:16.717Z,99132.41
2022-08-06T08:03:04.706Z,99129.59
2022-08-06T08:05:59.936Z,99134.91
2022-08-06T08:08:30.572Z,99131.81
2022-08-06T08:10:58.613Z,99147.22
2022-08-06T08:13:41.404Z,99143.44
2022-08-06T08:16:20.351Z,99143.13
2022-08-06T08:18:55.760Z,99137.44
2022-08-06T08:21:23.412Z,99138.09
2022-08-06T08:23:55.289Z,99138.22
2022-08-06T08:26:25.284Z,99131.81
2022-08-06T08:28:52.866Z,99128.44
2022-08-06T08:31:25.652Z,99126.06
2022-08-06T08:33:54.700Z,99119.63
2022-08-06T08:36:30.512Z,99116.16
2022-08-06T08:38:58.789Z,99111.22
2022-08-06T08:41:48.817Z,99114.56
2022-08-06T08:44:28.550Z,99114.44
2022-08-06T08:47:00.269Z,99095.50
2022-08-06T08:49:46.777Z,99099.44
2022-08-06T08:52:18.394Z,99101.88
2022-08-06T08:54:52.933Z,99097.19
2022-08-06T08:58:42.009Z,99099.06
2022-08-06T09:00:12.489Z,99096.19
2022-08-06T09:02:53.268Z,99102.91
2022-08-06T09:05:22.081Z,99101.69
2022-08-06T09:08:01.279Z,99098.38
2022-08-06T09:10:33.129Z,99098.56
2022-08-06T09:13:22.451Z,99090.03
2022-08-06T09:15:52.813Z,99089.72
2022-08-06T09:18:27.106Z,99092.94
2022-08-06T09:20:55.755Z,99095.44
2022-08-06T09:23:25.571Z,99097.09
2022-08-06T09:25:58.798Z,99100.22
2022-08-06T09:28:43.116Z,99105.66
2022-08-06T09:31:31.196Z,99105.88
2022-08-06T09:34:19.361Z,99101.47
2022-08-06T09:36:57.063Z,99101.53
2022-08-06T09:39:46.048Z,99101.06
2022-08-06T09:42:41.962Z,99099.66
2022-08-06T09:45:16.578Z,99104.94
2022-08-06T09:47:58.954Z,99115.78
2022-08-06T09:50:39.365Z,99116.53
2022-08-06T09:53:14.128Z,99116.59
2022-08-06T09:55:43.284Z,99107.22
2022-08-06T09:58:12.141Z,99109.44
2022-08-06T10:00:40.499Z,99107.06
2022-08-06T10:04:04.974Z,99103.38
2022-08-06T10:06:06.452Z,99104.78
2022-08-06T10:08:39.649Z,99116.16
2022-08-06T10:11:07.901Z,99114.59
2022-08-06T10:13:43.654Z,99109.06
2022-08-06T10:16:29.632Z,99115.41
2022-08-06T10:19:01.906Z,99115.91
2022-08-06T10:21:46.887Z,99117.81
2022-08-06T10:24:25.822Z,99113.59
2022-08-06T10:27:14.964Z,99112.09
2022-08-06T10:29:48.281Z,99109.13
2022-08-06T10:32:30.744Z,99115.84
2022-08-06T10:35:11.973Z,99117.19
2022-08-06T10:37:49.464Z,99113.16
2022-08-06T10:40:30.945Z,99100.75
2022-08-06T10:43:04.325Z,99101.72
2022-08-06T10:45:47.154Z,99107.75
2022-08-06T10:48:59.389Z,99105.84
2022-08-06T10:51:07.254Z,99102.56
2022-08-06T10:54:01.724Z,99095.69
2022-08-06T10:56:31.691Z,99093.63
2022-08-06T10:59:00.793Z,99095.34
2022-08-06T11:02:14.669Z,99094.91
2022-08-06T11:04:57.226Z,99095.41
2022-08-06T11:08:13.046Z,99084.75
2022-08-06T11:11:20.054Z,99088.88
2022-08-06T11:14:21.609Z,99087.44
2022-08-06T11:17:00.419Z,99085.59
2022-08-06T11:19:56.815Z,99087.03
2022-08-06T11:22:53.479Z,99083.31
2022-08-06T11:25:44.237Z,99076.53
2022-08-06T11:28:14.132Z,99075.38
2022-08-06T11:30:54.421Z,99073.47
2022-08-06T11:33:33.918Z,99073.66
2022-08-06T11:36:10.903Z,99075.56
2022-08-06T11:38:50.349Z,99067.38
2022-08-06T11:41:56.399Z,99076.03
2022-08-06T11:44:21.602Z,99072.47
2022-08-06T11:47:11.489Z,99058.03
2022-08-06T11:49:44.892Z,99048.78
2022-08-06T11:52:41.433Z,99049.69
2022-08-06T11:55:23.681Z,99050.31
2022-08-06T11:58:15.283Z,99048.66
2022-08-06T12:00:59.150Z,99047.28
2022-08-06T12:03:44.338Z,99045.94
2022-08-06T12:06:26.031Z,99047.19
2022-08-06T12:09:11.068Z,99022.25
2022-08-06T12:11:41.119Z,99023.78
2022-08-06T12:14:46.732Z,99027.72
2022-08-06T12:17:18.111Z,99030.31
2022-08-06T12:20:02.409Z,99038.72
2022-08-06T12:22:34.368Z,99031.72
2022-08-06T12:25:11.520Z,99026.00
2022-08-06T12:27:49.745Z,99016.63
2022-08-06T12:30:36.556Z,99013.50
2022-08-06T12:33:11.809Z,99013.72
2022-08-06T12:36:02.394Z,99000.06
2022-08-06T12:38:32.922Z,98998.25
2022-08-06T12:41:10.987Z,99000.59
2022-08-06T12:43:56.279Z,99002.75
2022-08-06T12:46:29.665Z,98996.28
2022-08-06T12:49:01.621Z,98988.78
2022-08-06T12:51:32.154Z,98977.09
2022-08-06T12:54:05.054Z,98980.09
2022-08-06T12:56:39.092Z,98979.94
2022-08-06T12:59:22.179Z,98986.31
2022-08-06T13:02:11.064Z,98974.13
2022-08-06T13:04:46.739Z,98971.06
2022-08-06T13:07:16.293Z,98974.22
2022-08-06T13:10:16.990Z,98982.84
2022-08-06T13:14:03.467Z,98981.00
2022-08-06T13:15:23.184Z,98983.28
2022-08-06T13:18:40.495Z,98980.28
2022-08-06T13:21:06.319Z,98983.78
2022-08-06T13:23:43.736Z,98974.19
2022-08-06T13:26:27.091Z,98967.28
2022-08-06T13:30:31.797Z,98965.81
2022-08-06T13:32:19.179Z,98961.28
2022-08-06T13:34:57.753Z,98954.84
2022-08-06T13:37:56.952Z,98956.09
2022-08-06T13:40:47.184Z,98947.25
2022-08-06T13:43:38.772Z,98946.81
2022-08-06T13:46:16.670Z,98948.88
2022-08-06T13:48:53.002Z,98948.09
2022-08-06T13:51:27.649Z,98955.81
2022-08-06T13:54:03.860Z,98948.97
2022-08-06T13:56:31.703Z,98948.56
2022-08-06T13:59:01.677Z,98944.78
2022-08-06T14:01:35.164Z,98945.00
2022-08-06T14:04:14.634Z,98947.28
2022-08-06T14:06:44.823Z,98942.66
2022-08-06T14:09:19.509Z,98936.00
2022-08-06T14:12:02.332Z,98931.47
2022-08-06T14:14:31.005Z,98931.66
2022-08-06T14:17:00.638Z,98935.56
2022-08-06T14:20:16.754Z,98924.66
2022-08-06T14:22:18.115Z,98928.91
2022-08-06T14:24:47.668Z,98930.19
2022-08-06T14:27:24.015Z,98936.00
2022-08-06T14:30:27.647Z,98928.25
2022-08-06T14:32:39.193Z,98932.28
2022-08-06T14:35:08.805Z,98930.22
2022-08-06T14:37:50.051Z,98927.88
2022-08-06T14:40:51.779Z,98922.06
2022-08-06T14:43:55.164Z,98924.16
2022-08-06T14:46:30.643Z,98925.38
2022-08-06T14:49:08.957Z,98916.06
2022-08-06T14:52:18.971Z,98909.97
2022-08-06T14:54:31.152Z,98908.91
2022-08-06T14:57:02.476Z,98908.28
2022-08-06T14:59:47.987Z,98909.03
2022-08-06T15:02:16.731Z,98901.16
2022-08-06T15:04:45.695Z,98910.91
2022-08-06T15:07:25.616Z,98911.75
2022-08-06T15:10:05.850Z,98911.06
2022-08-06T15:12:51.253Z,98907.75
2022-08-06T15:15:24.075Z,98902.16
2022-08-06T15:18:09.349Z,98893.22
2022-08-06T15:20:38.525Z,98903.81
2022-08-06T15:23:06.599Z,98890.13
2022-08-06T15:25:59.594Z,98894.44
2022-08-06T15:28:20.613Z,98895.06
2022-08-06T15:30:47.878Z,98888.81
2022-08-06T15:33:16.584Z,98893.63
2022-08-06T15:35:56.806Z,98893.81
2022-08-06T15:38:27.448Z,98894.47
2022-08-06T15:40:56.401Z,98897.66
2022-08-06T15:43:27.426Z,98893.06
2022-08-06T15:45:58.526Z,98894.53
2022-08-06T15:48:28.322Z,98891.31
2022-08-06T15:51:28.423Z,98899.41
2022-08-06T15:53:53.944Z,98895.06
2022-08-06T15:56:33.870Z,98887.81
2022-08-06T15:59:06.106Z,98890.50
2022-08-06T16:02:01.087Z,98888.00
2022-08-06T16:04:35.442Z,98880.91
2022-08-06T16:07:06.071Z,98891.31
2022-08-06T16:10:00.880Z,98889.25
2022-08-06T16:12:24.838Z,98888.41
2022-08-06T16:14:54.369Z,98886.72
2022-08-06T16:17:33.588Z,98887.75
2022-08-06T16:20:19.966Z,98880.25
2022-08-06T16:22:48.586Z,98877.53
2022-08-06T16:25:17.343Z,98884.16
2022-08-06T16:27:46.062Z,98886.00
2022-08-06T16:30:15.330Z,98879.75
2022-08-06T16:32:45.055Z,98876.41
2022-08-06T16:35:15.123Z,98881.34
2022-08-06T16:37:42.572Z,98871.72
2022-08-06T16:40:10.429Z,98874.00
2022-08-06T16:42:37.969Z,98864.47
2022-08-06T16:45:11.739Z,98869.41
2022-08-06T16:48:22.117Z,98875.44
2022-08-06T16:50:43.201Z,98884.31
2022-08-06T16:56:00.928Z,98874.28
2022-08-06T16:58:33.254Z,98873.03
2022-08-06T17:02:19.592Z,98868.88
2022-08-06T17:03:59.125Z,98873.00
2022-08-06T17:06:30.351Z,98880.31
2022-08-06T17:09:00.298Z,98874.88
2022-08-06T17:11:45.477Z,98872.53
2022-08-06T17:14:17.213Z,98874.34
2022-08-06T17:16:47.949Z,98870.34
2022-08-06T17:19:17.748Z,98873.84
2022-08-06T17:21:58.164Z,98874.25
2022-08-06T17:24:38.052Z,98875.00
2022-08-06T17:27:15.243Z,98878.75
2022-08-06T17:29:48.666Z,98880.16
2022-08-06T17:32:27.653Z,98872.47
2022-08-06T17:35:09.633Z,98875.16
2022-08-06T17:37:44.255Z,98878.81
2022-08-06T17:40:30.895Z,98883.13
2022-08-06T17:43:04.181Z,98878.97
2022-08-06T17:45:31.409Z,98870.59
2022-08-06T17:47:58.588Z,98876.34
2022-08-06T17:50:42.209Z,98873.25
2022-08-06T17:53:18.950Z,98874.03
2022-08-06T17:56:00.396Z,98878.06
2022-08-06T17:58:38.367Z,98871.75
2022-08-06T18:01:16.638Z,98872.97
2022-08-06T18:03:50.952Z,98880.28
2022-08-06T18:06:28.740Z,98887.72
2022-08-06T18:08:57.726Z,98881.13
2022-08-06T18:11:26.786Z,98888.06
2022-08-06T18:13:56.587Z,98881.84
2022-08-06T18:16:29.981Z,98881.94
2022-08-06T18:18:58.186Z,98887.91
2022-08-06T18:21:25.991Z,98900.63
2022-08-06T18:23:55.851Z,98891.25
2022-08-06T18:26:32.689Z,98898.44
2022-08-06T18:29:04.142Z,98898.97
2022-08-06T18:32:00.258Z,98899.03
2022-08-06T18:34:29.222Z,98894.28
2022-08-06T18:37:19.369Z,98900.50
2022-08-06T18:40:19.869Z,98902.78
2022-08-06T18:42:34.480Z,98913.53
2022-08-06T18:45:03.222Z,98911.63
2022-08-06T18:47:33.394Z,98915.44
2022-08-06T18:50:01.445Z,98918.59
2022-08-06T18:52:33.700Z,98923.31
2022-08-06T18:55:04.326Z,98917.53
2022-08-06T18:58:03.621Z,98927.63
2022-08-06T19:00:24.037Z,98924.13
2022-08-06T19:03:00.809Z,98921.38
2022-08-06T19:05:29.704Z,98925.06
2022-08-06T19:07:58.449Z,98932.19
2022-08-06T19:10:27.708Z,98937.44
2022-08-06T19:12:56.455Z,98930.84
2022-08-06T19:15:24.459Z,98934.41
2022-08-06T19:18:17.096Z,98930.72
2022-08-06T19:20:45.372Z,98940.47
2022-08-06T19:23:12.857Z,98949.03
2022-08-06T19:26:12.452Z,98939.34
2022-08-06T19:28:50.311Z,98946.09
2022-08-06T19:31:23.752Z,98939.88
2022-08-06T19:34:15.044Z,98938.41
2022-08-06T19:36:48.416Z,98941.94
2022-08-06T19:39:52.922Z,98940.41
2022-08-06T19:42:15.611Z,98949.13
2022-08-06T19:45:04.025Z,98941.06
2022-08-06T19:47:41.122Z,98939.78
2022-08-06T19:50:14.876Z,98943.34
2022-08-06T19:52:47.193Z,98943.25
2022-08-06T19:56:06.449Z,98938.66
2022-08-06T19:58:25.967Z,98941.91
2022-08-06T20:01:07.430Z,98943.88
2022-08-06T20:03:41.338Z,98937.06
2022-08-06T20:06:21.302Z,98935.75
2022-08-06T20:08:56.702Z,98941.91
2022-08-06T20:12:03.137Z,98947.69
2022-08-06T20:14:13.128Z,98952.34
2022-08-06T20:16:42.228Z,98946.09
2022-08-06T20:19:10.089Z,98945.84
2022-08-06T20:21:42.924Z,98945.78
2022-08-06T20:24:10.921Z,98947.09
2022-08-06T20:26:59.104Z,98950.47
2022-08-06T20:29:34.598Z,98945.09
2022-08-06T20:32:16.827Z,98953.28
2022-08-06T20:34:46.595Z,98953.47
2022-08-06T20:37:15.894Z,98951.19
2022-08-06T20:39:48.627Z,98952.91
2022-08-06T20:42:20.256Z,98949.38
2022-08-06T20:44:51.841Z,98953.97
2022-08-06T20:47:46.227Z,98941.66
2022-08-06T20:50:10.973Z,98943.19
2022-08-06T20:52:39.828Z,98943.53
2022-08-06T20:55:09.598Z,98941.69
2022-08-06T20:57:47.746Z,98943.31
2022-08-06T21:00:22.415Z,98953.31
2022-08-06T21:03:27.824Z,98945.44
2022-08-06T21:05:50.588Z,98946.53
2022-08-06T21:08:27.209Z,98947.63
2022-08-06T21:10:58.251Z,98950.97
2022-08-06T21:13:29.574Z,98949.78
2022-08-06T21:16:13.368Z,98947.28
2022-08-06T21:18:42.890Z,98951.97
2022-08-06T21:21:10.582Z,98948.31
2022-08-06T21:23:55.289Z,98950.09
2022-08-06T21:26:25.590Z,98951.94
2022-08-06T21:29:14.597Z,98949.91
2022-08-06T21:31:57.302Z,98952.06
2022-08-06T21:34:26.252Z,98964.03
2022-08-06T21:36:56.143Z,98953.09
2022-08-06T21:39:44.129Z,98955.13
2022-08-06T21:42:15.469Z,98954.56
2022-08-06T21:44:43.124Z,98954.56
2022-08-06T21:47:14.958Z,98955.53
2022-08-06T21:49:59.361Z,98955.66
2022-08-06T21:52:34.190Z,98959.31
2022-08-06T21:56:35.505Z,98953.94
2022-08-06T21:57:52.667Z,98951.78
2022-08-06T22:00:45.406Z,98951.97
2022-08-06T22:04:39.505Z,98953.72
2022-08-06T22:06:21.611Z,98949.06
2022-08-06T22:08:54.807Z,98949.03
2022-08-06T22:12:37.306Z,98950.50
2022-08-06T22:14:15.680Z,98946.16
2022-08-06T22:16:48.337Z,98953.75
2022-08-06T22:19:16.583Z,98947.34
2022-08-06T22:21:50.588Z,98949.91
2022-08-06T22:24:22.637Z,98944.13
2022-08-06T22:26:56.434Z,98946.06
2022-08-06T22:29:26.614Z,98949.84
2022-08-06T22:31:56.909Z,98948.34
2022-08-06T22:34:25.877Z,98947.25
2022-08-06T22:36:58.816Z,98946.91
2022-08-06T22:39:34.759Z,98949.72
2022-08-06T22:42:08.200Z,98928.47
2022-08-06T22:44:57.350Z,98934.09
2022-08-06T22:47:33.547Z,98929.31
2022-08-06T22:50:11.323Z,98932.94
2022-08-06T22:53:01.999Z,98926.66
2022-08-06T22:55:28.486Z,98928.25
2022-08-06T22:59:02.029Z,98930.56
2022-08-06T23:00:46.318Z,98923.66
2022-08-06T23:03:15.588Z,98927.28
2022-08-06T23:05:46.781Z,98932.59
2022-08-06T23:08:15.646Z,98922.47
2022-08-06T23:10:48.238Z,98929.72
2022-08-06T23:13:25.877Z,98918.53
2022-08-06T23:15:58.433Z,98925.47
2022-08-06T23:18:30.540Z,98929.56
2022-08-06T23:21:22.118Z,98931.41
2022-08-06T23:23:53.874Z,98928.03
2022-08-06T23:26:32.130Z,98924.53
2022-08-06T23:29:08.745Z,98918.06
2022-08-06T23:31:38.186Z,98922.00
2022-08-06T23:34:21.243Z,98916.69
2022-08-06T23:36:57.333Z,98906.72
2022-08-06T23:39:36.932Z,98913.31
2022-08-06T23:42:14.340Z,98901.78
2022-08-06T23:44:42.598Z,98910.63
2022-08-06T23:47:54.872Z,98901.94
2022-08-06T23:50:03.479Z,98905.19
2022-08-06T23:52:30.569Z,98909.81
2022-08-06T23:54:59.657Z,98915.97
2022-08-06T23:57:32.965Z,98916.53
